West Point, Ohio
Current Conditions -  °F | °C
As of 6:47 PM on Saturday 25 Oct 2014 (Local Time) from KBVI Reporting Station
Broken Clouds Broken Clouds  
Wind Chill: 64°   Ceiling: 4500
Heat Index: 64°   Visibility: 10mi
Dew Point: 52°   Wind: 7mph
Humidity: 64%   Direction: 260°W
Pressure: 29.75"   Gusts: 16mph
Location:  40.71°N, 80.7°W
Report Text: KBVI 252247Z 26006G14KT 10SM BKN045 BKN060 18/11 A2975
Loading
Personal Weather Stations






























Interactive Weather Map New forecast layout! Learn more

10-Day Weather Forecast

Advertisements
Track Severe Weather on mobile